SVA7018 LIME-LSZH
Flight info
| Callsign | SVA7018 |
|---|---|
| Flight time | 0h 30m |
| Altitude | 28000 |
| Route | PEPAG DCT CANNE Z651 KELIP |
| Aircraft | B737/M-SDE2E3FGHIRWXY/LB1 |
Departure
| Time | 2026-04-26 12:49 |
|---|---|
| Airport | Il Caravaggio International Airport (LIME) |
Arrival
| Time | 2026-04-26 13:20 |
|---|---|
| Airport | Zürich Airport (LSZH) |
| Time | Latitude | Longitude | Altitude | Speed | Heading |
|---|---|---|---|---|---|
| 2026-04-26 12:28 | 45.66563 | 9.70520 | 786 ft | 0 kts | 195° |
| 2026-04-26 12:37 | 45.66566 | 9.70521 | 786 ft | 1 kts | 195° |
| 2026-04-26 12:37 | 45.66583 | 9.70527 | 786 ft | 3 kts | 195° |
| 2026-04-26 12:37 | 45.66603 | 9.70535 | 786 ft | 3 kts | 194° |
| 2026-04-26 12:37 | 45.66620 | 9.70541 | 786 ft | 3 kts | 176° |
| 2026-04-26 12:38 | 45.66637 | 9.70532 | 786 ft | 3 kts | 134° |
| 2026-04-26 12:38 | 45.66648 | 9.70510 | 786 ft | 2 kts | 108° |
| 2026-04-26 12:38 | 45.66650 | 9.70503 | 786 ft | 0 kts | 105° |
| 2026-04-26 12:40 | 45.66645 | 9.70527 | 786 ft | 9 kts | 105° |
| 2026-04-26 12:41 | 45.66625 | 9.70631 | 786 ft | 11 kts | 105° |
| 2026-04-26 12:41 | 45.66606 | 9.70739 | 786 ft | 11 kts | 104° |
| 2026-04-26 12:41 | 45.66586 | 9.70844 | 786 ft | 11 kts | 105° |
| 2026-04-26 12:41 | 45.66567 | 9.70945 | 786 ft | 10 kts | 104° |
| 2026-04-26 12:42 | 45.66549 | 9.71044 | 786 ft | 10 kts | 105° |
| 2026-04-26 12:42 | 45.66521 | 9.71140 | 786 ft | 11 kts | 114° |
| 2026-04-26 12:42 | 45.66496 | 9.71243 | 786 ft | 11 kts | 105° |
| 2026-04-26 12:42 | 45.66476 | 9.71351 | 786 ft | 11 kts | 105° |
| 2026-04-26 12:43 | 45.66457 | 9.71453 | 786 ft | 11 kts | 105° |
| 2026-04-26 12:43 | 45.66439 | 9.71554 | 786 ft | 10 kts | 101° |
| 2026-04-26 12:43 | 45.66445 | 9.71656 | 786 ft | 10 kts | 75° |
| 2026-04-26 12:43 | 45.66464 | 9.71755 | 786 ft | 10 kts | 75° |
| 2026-04-26 12:44 | 45.66470 | 9.71858 | 786 ft | 11 kts | 96° |
| 2026-04-26 12:44 | 45.66450 | 9.71980 | 786 ft | 14 kts | 104° |
| 2026-04-26 12:44 | 45.66427 | 9.72109 | 786 ft | 13 kts | 104° |
| 2026-04-26 12:44 | 45.66404 | 9.72233 | 786 ft | 13 kts | 104° |
| 2026-04-26 12:45 | 45.66383 | 9.72349 | 786 ft | 8 kts | 104° |
| 2026-04-26 12:45 | 45.66382 | 9.72355 | 786 ft | 0 kts | 104° |
| 2026-04-26 12:47 | 45.66376 | 9.72387 | 786 ft | 5 kts | 104° |
| 2026-04-26 12:48 | 45.66374 | 9.72426 | 786 ft | 7 kts | 81° |
| 2026-04-26 12:48 | 45.66383 | 9.72513 | 786 ft | 11 kts | 84° |
| 2026-04-26 12:48 | 45.66428 | 9.72582 | 786 ft | 9 kts | 344° |
| 2026-04-26 12:48 | 45.66447 | 9.72515 | 786 ft | 10 kts | 285° |
| 2026-04-26 12:49 | 45.66521 | 9.72102 | 786 ft | 87 kts | 284° |
| 2026-04-26 12:49 | 45.66746 | 9.70877 | 789 ft | 165 kts | 285° |
| 2026-04-26 12:49 | 45.67091 | 9.69117 | 1363 ft | 191 kts | 285° |
| 2026-04-26 12:49 | 45.67235 | 9.67278 | 2568 ft | 180 kts | 255° |
| 2026-04-26 12:50 | 45.66627 | 9.65757 | 3569 ft | 183 kts | 219° |
| 2026-04-26 12:50 | 45.65575 | 9.64485 | 4118 ft | 215 kts | 211° |
| 2026-04-26 12:50 | 45.64112 | 9.64004 | 5014 ft | 221 kts | 168° |
| 2026-04-26 12:50 | 45.62840 | 9.65025 | 6196 ft | 214 kts | 128° |
| 2026-04-26 12:51 | 45.62345 | 9.66981 | 7228 ft | 216 kts | 88° |
| 2026-04-26 12:51 | 45.62771 | 9.69039 | 8170 ft | 220 kts | 67° |
| 2026-04-26 12:51 | 45.63573 | 9.70926 | 9049 ft | 228 kts | 43° |
| 2026-04-26 12:51 | 45.64963 | 9.71976 | 10006 ft | 230 kts | 11° |
| 2026-04-26 12:52 | 45.66584 | 9.71873 | 10617 ft | 247 kts | 339° |
| 2026-04-26 12:52 | 45.67971 | 9.70357 | 11199 ft | 264 kts | 305° |
| 2026-04-26 12:52 | 45.68971 | 9.67979 | 11478 ft | 294 kts | 299° |
| 2026-04-26 12:52 | 45.70032 | 9.65293 | 11715 ft | 325 kts | 299° |
| 2026-04-26 12:53 | 45.71206 | 9.62368 | 11925 ft | 353 kts | 300° |
| 2026-04-26 12:53 | 45.72497 | 9.59235 | 12175 ft | 376 kts | 301° |
| 2026-04-26 12:53 | 45.73859 | 9.55979 | 12802 ft | 386 kts | 301° |
| 2026-04-26 12:53 | 45.75253 | 9.52682 | 13730 ft | 387 kts | 302° |
| 2026-04-26 12:54 | 45.76789 | 9.49503 | 14577 ft | 391 kts | 306° |
| 2026-04-26 12:54 | 45.78424 | 9.46373 | 15390 ft | 394 kts | 307° |
| 2026-04-26 12:54 | 45.80076 | 9.43219 | 16238 ft | 397 kts | 306° |
| 2026-04-26 12:54 | 45.81728 | 9.40011 | 17078 ft | 401 kts | 306° |
| 2026-04-26 12:55 | 45.83379 | 9.36770 | 17858 ft | 405 kts | 306° |
| 2026-04-26 12:55 | 45.85049 | 9.33485 | 18541 ft | 411 kts | 306° |
| 2026-04-26 12:55 | 45.86740 | 9.30154 | 19196 ft | 414 kts | 306° |
| 2026-04-26 12:55 | 45.88442 | 9.26801 | 19844 ft | 417 kts | 306° |
| 2026-04-26 12:56 | 45.90132 | 9.23467 | 20455 ft | 421 kts | 305° |
| 2026-04-26 12:56 | 45.91862 | 9.20050 | 21109 ft | 424 kts | 305° |
| 2026-04-26 12:56 | 45.93605 | 9.16603 | 21706 ft | 428 kts | 305° |
| 2026-04-26 12:56 | 45.95364 | 9.13124 | 22309 ft | 431 kts | 305° |
| 2026-04-26 12:57 | 45.97142 | 9.09634 | 22902 ft | 435 kts | 307° |
| 2026-04-26 12:57 | 45.99179 | 9.06380 | 23446 ft | 441 kts | 315° |
| 2026-04-26 12:57 | 46.01588 | 9.03588 | 23935 ft | 446 kts | 323° |
| 2026-04-26 12:58 | 46.06698 | 8.98457 | 24928 ft | 450 kts | 323° |
| 2026-04-26 12:58 | 46.09264 | 8.95848 | 25402 ft | 452 kts | 322° |
| 2026-04-26 12:58 | 46.11829 | 8.93192 | 25864 ft | 455 kts | 322° |
| 2026-04-26 12:58 | 46.14482 | 8.90677 | 26283 ft | 459 kts | 329° |
| 2026-04-26 12:59 | 46.17405 | 8.88771 | 26700 ft | 464 kts | 338° |
| 2026-04-26 12:59 | 46.20520 | 8.87460 | 27138 ft | 469 kts | 346° |
| 2026-04-26 12:59 | 46.23764 | 8.86820 | 27682 ft | 470 kts | 352° |
| 2026-04-26 12:59 | 46.27013 | 8.86373 | 28080 ft | 470 kts | 352° |
| 2026-04-26 13:00 | 46.33481 | 8.85538 | 28069 ft | 467 kts | 352° |
| 2026-04-26 13:00 | 46.39944 | 8.84622 | 28111 ft | 467 kts | 352° |
| 2026-04-26 13:01 | 46.46414 | 8.83647 | 28144 ft | 467 kts | 352° |
| 2026-04-26 13:01 | 46.52893 | 8.82665 | 28133 ft | 469 kts | 352° |
| 2026-04-26 13:02 | 46.59379 | 8.81685 | 28154 ft | 469 kts | 352° |
| 2026-04-26 13:02 | 46.65832 | 8.80712 | 28055 ft | 470 kts | 352° |
| 2026-04-26 13:03 | 46.69091 | 8.80220 | 27773 ft | 470 kts | 352° |
| 2026-04-26 13:03 | 46.72341 | 8.79729 | 27518 ft | 469 kts | 352° |
| 2026-04-26 13:03 | 46.75591 | 8.79238 | 27265 ft | 470 kts | 352° |
| 2026-04-26 13:03 | 46.78855 | 8.78745 | 27019 ft | 471 kts | 352° |
| 2026-04-26 13:04 | 46.82119 | 8.78249 | 26769 ft | 472 kts | 352° |
| 2026-04-26 13:04 | 46.85384 | 8.77754 | 26537 ft | 473 kts | 352° |
| 2026-04-26 13:04 | 46.88672 | 8.77255 | 26288 ft | 474 kts | 352° |
| 2026-04-26 13:04 | 46.91951 | 8.76756 | 26037 ft | 474 kts | 352° |
| 2026-04-26 13:05 | 46.95185 | 8.75949 | 25770 ft | 470 kts | 342° |
| 2026-04-26 13:05 | 46.98261 | 8.74364 | 25549 ft | 469 kts | 334° |
| 2026-04-26 13:05 | 47.01134 | 8.72143 | 25201 ft | 461 kts | 327° |
| 2026-04-26 13:05 | 47.03616 | 8.69830 | 24272 ft | 458 kts | 325° |
| 2026-04-26 13:06 | 47.06273 | 8.67303 | 23255 ft | 451 kts | 325° |
| 2026-04-26 13:06 | 47.08885 | 8.64807 | 22225 ft | 445 kts | 325° |
| 2026-04-26 13:06 | 47.11423 | 8.62390 | 21309 ft | 437 kts | 326° |
| 2026-04-26 13:06 | 47.13961 | 8.59991 | 20394 ft | 430 kts | 326° |
| 2026-04-26 13:07 | 47.16467 | 8.57631 | 19481 ft | 424 kts | 326° |
| 2026-04-26 13:07 | 47.18933 | 8.55317 | 18594 ft | 418 kts | 326° |
| 2026-04-26 13:07 | 47.21371 | 8.53026 | 17603 ft | 413 kts | 326° |
| 2026-04-26 13:07 | 47.23778 | 8.50764 | 16680 ft | 408 kts | 326° |
| 2026-04-26 13:08 | 47.26160 | 8.48520 | 15766 ft | 404 kts | 326° |
| 2026-04-26 13:08 | 47.28529 | 8.46293 | 14865 ft | 400 kts | 326° |
| 2026-04-26 13:08 | 47.30865 | 8.44098 | 13924 ft | 398 kts | 326° |
| 2026-04-26 13:08 | 47.33190 | 8.41907 | 12885 ft | 396 kts | 327° |
| 2026-04-26 13:09 | 47.35473 | 8.39745 | 11950 ft | 392 kts | 326° |
| 2026-04-26 13:09 | 47.37758 | 8.37586 | 11054 ft | 388 kts | 327° |
| 2026-04-26 13:09 | 47.40008 | 8.35454 | 10839 ft | 380 kts | 327° |
| 2026-04-26 13:09 | 47.42211 | 8.33370 | 10649 ft | 369 kts | 327° |
| 2026-04-26 13:10 | 47.44319 | 8.31372 | 10451 ft | 351 kts | 327° |
| 2026-04-26 13:10 | 47.46317 | 8.29476 | 10304 ft | 332 kts | 327° |
| 2026-04-26 13:10 | 47.48189 | 8.27697 | 10163 ft | 307 kts | 327° |
| 2026-04-26 13:10 | 47.49924 | 8.26046 | 10027 ft | 287 kts | 327° |
| 2026-04-26 13:11 | 47.51569 | 8.24481 | 9726 ft | 279 kts | 327° |
| 2026-04-26 13:11 | 47.53195 | 8.22934 | 9395 ft | 276 kts | 327° |
| 2026-04-26 13:11 | 47.54804 | 8.21405 | 9033 ft | 274 kts | 327° |
| 2026-04-26 13:11 | 47.56412 | 8.19882 | 8652 ft | 273 kts | 327° |
| 2026-04-26 13:12 | 47.58007 | 8.18366 | 8282 ft | 272 kts | 327° |
| 2026-04-26 13:12 | 47.59599 | 8.16846 | 7853 ft | 274 kts | 327° |
| 2026-04-26 13:12 | 47.61349 | 8.15708 | 7325 ft | 279 kts | 351° |
| 2026-04-26 13:12 | 47.63271 | 8.15871 | 6917 ft | 277 kts | 19° |
| 2026-04-26 13:13 | 47.64886 | 8.17241 | 6462 ft | 271 kts | 45° |
| 2026-04-26 13:13 | 47.65841 | 8.19553 | 6236 ft | 262 kts | 73° |
| 2026-04-26 13:13 | 47.65945 | 8.22161 | 5997 ft | 250 kts | 98° |
| 2026-04-26 13:13 | 47.65457 | 8.24570 | 5921 ft | 239 kts | 109° |
| 2026-04-26 13:14 | 47.64814 | 8.26828 | 5573 ft | 236 kts | 112° |
| 2026-04-26 13:14 | 47.64164 | 8.29036 | 5418 ft | 231 kts | 111° |
| 2026-04-26 13:14 | 47.63559 | 8.31222 | 5156 ft | 226 kts | 110° |
| 2026-04-26 13:14 | 47.62935 | 8.33324 | 4988 ft | 221 kts | 120° |
| 2026-04-26 13:15 | 47.61921 | 8.34929 | 4916 ft | 209 kts | 139° |
| 2026-04-26 13:15 | 47.60839 | 8.36309 | 4824 ft | 201 kts | 133° |
| 2026-04-26 13:15 | 47.59857 | 8.37724 | 4513 ft | 191 kts | 134° |
| 2026-04-26 13:15 | 47.59223 | 8.38591 | 4343 ft | 181 kts | 133° |
| 2026-04-26 13:16 | 47.58037 | 8.40193 | 4076 ft | 167 kts | 134° |
| 2026-04-26 13:16 | 47.57158 | 8.41374 | 3704 ft | 173 kts | 134° |
| 2026-04-26 13:16 | 47.56335 | 8.42512 | 3622 ft | 162 kts | 133° |
| 2026-04-26 13:16 | 47.55509 | 8.43646 | 3361 ft | 162 kts | 133° |
| 2026-04-26 13:17 | 47.53923 | 8.45816 | 2967 ft | 151 kts | 133° |
| 2026-04-26 13:17 | 47.53149 | 8.46866 | 2777 ft | 150 kts | 133° |
| 2026-04-26 13:18 | 47.51669 | 8.48863 | 2387 ft | 136 kts | 135° |
| 2026-04-26 13:18 | 47.50973 | 8.49806 | 2189 ft | 136 kts | 134° |
| 2026-04-26 13:18 | 47.49592 | 8.51712 | 1802 ft | 131 kts | 133° |
| 2026-04-26 13:19 | 47.48921 | 8.52628 | 1625 ft | 134 kts | 132° |
| 2026-04-26 13:19 | 47.48233 | 8.53570 | 1443 ft | 130 kts | 131° |
| 2026-04-26 13:19 | 47.47634 | 8.54394 | 1396 ft | 99 kts | 137° |
| 2026-04-26 13:19 | 47.47239 | 8.54939 | 1385 ft | 56 kts | 139° |
| 2026-04-26 13:20 | 47.46991 | 8.55268 | 1388 ft | 45 kts | 137° |
| 2026-04-26 13:20 | 47.46788 | 8.55544 | 1398 ft | 32 kts | 141° |
| 2026-04-26 13:20 | 47.46600 | 8.55676 | 1397 ft | 29 kts | 165° |
| 2026-04-26 13:20 | 47.46463 | 8.55721 | 1395 ft | 14 kts | 168° |
| 2026-04-26 13:21 | 47.46390 | 8.55752 | 1397 ft | 0 kts | 149° |
| 2026-04-26 13:21 | 47.46362 | 8.55785 | 1401 ft | 13 kts | 136° |
| 2026-04-26 13:22 | 47.46298 | 8.55872 | 1407 ft | 13 kts | 137° |
| 2026-04-26 13:22 | 47.46234 | 8.55958 | 1407 ft | 12 kts | 137° |
| 2026-04-26 13:22 | 47.46159 | 8.55999 | 1405 ft | 12 kts | 186° |
| 2026-04-26 13:22 | 47.46077 | 8.55987 | 1406 ft | 12 kts | 185° |
| 2026-04-26 13:23 | 47.45997 | 8.55976 | 1405 ft | 12 kts | 185° |
| 2026-04-26 13:23 | 47.45914 | 8.55941 | 1406 ft | 12 kts | 199° |
| 2026-04-26 13:23 | 47.45853 | 8.55908 | 1408 ft | 0 kts | 198° |
| 2026-04-26 13:23 | 47.45843 | 8.55903 | 1410 ft | 4 kts | 199° |
| 2026-04-26 13:24 | 47.45834 | 8.55898 | 1409 ft | 7 kts | 199° |
| 2026-04-26 13:24 | 47.45723 | 8.55868 | 1411 ft | 22 kts | 185° |
| 2026-04-26 13:24 | 47.45659 | 8.55857 | 1410 ft | 7 kts | 200° |
| 2026-04-26 13:24 | 47.45643 | 8.55786 | 1412 ft | 9 kts | 270° |
| 2026-04-26 13:25 | 47.45651 | 8.55677 | 1405 ft | 12 kts | 276° |
| 2026-04-26 13:25 | 47.45661 | 8.55551 | 1402 ft | 12 kts | 276° |
| 2026-04-26 13:25 | 47.45670 | 8.55423 | 1400 ft | 12 kts | 276° |
| 2026-04-26 13:25 | 47.45679 | 8.55297 | 1402 ft | 13 kts | 276° |
| 2026-04-26 13:26 | 47.45661 | 8.55181 | 1403 ft | 12 kts | 213° |
| 2026-04-26 13:26 | 47.45571 | 8.55135 | 1395 ft | 18 kts | 198° |
| 2026-04-26 13:26 | 47.45430 | 8.55065 | 1402 ft | 23 kts | 199° |
| 2026-04-26 13:26 | 47.45297 | 8.55000 | 1403 ft | 8 kts | 198° |
| 2026-04-26 13:27 | 47.45260 | 8.54949 | 1391 ft | 9 kts | 264° |
| 2026-04-26 13:27 | 47.45296 | 8.54883 | 1394 ft | 9 kts | 333° |
| 2026-04-26 13:27 | 47.45351 | 8.54838 | 1396 ft | 9 kts | 309° |
| 2026-04-26 13:27 | 47.45342 | 8.54750 | 1397 ft | 10 kts | 246° |
| 2026-04-26 13:28 | 47.45300 | 8.54679 | 1395 ft | 10 kts | 202° |
| 2026-04-26 13:28 | 47.45238 | 8.54642 | 1395 ft | 9 kts | 201° |
| 2026-04-26 13:28 | 47.45177 | 8.54608 | 1392 ft | 9 kts | 201° |
| 2026-04-26 13:28 | 47.45118 | 8.54572 | 1392 ft | 9 kts | 200° |
| 2026-04-26 13:29 | 47.45081 | 8.54609 | 1395 ft | 7 kts | 110° |
| 2026-04-26 13:29 | 47.45069 | 8.54653 | 1397 ft | 7 kts | 110° |
| 2026-04-26 13:29 | 47.45057 | 8.54700 | 1392 ft | 0 kts | 111° |